sensor_id;sensor_type;location;lat;lon;timestamp;pressure;altitude;pressure_sealevel;temperature;humidity
46464;BME280;32161;48.148;-1.554;2023-04-19T00:02:21;101255.31;;;10.13;87.72
46464;BME280;32161;48.148;-1.554;2023-04-19T00:04:51;101251.97;;;10.11;87.92
46464;BME280;32161;48.148;-1.554;2023-04-19T00:07:20;101254.69;;;10.11;87.77
46464;BME280;32161;48.148;-1.554;2023-04-19T00:09:48;101245.53;;;10.05;87.98
46464;BME280;32161;48.148;-1.554;2023-04-19T00:12:16;101247.84;;;10.01;88.84
46464;BME280;32161;48.148;-1.554;2023-04-19T00:14:43;101244.72;;;9.98;88.73
46464;BME280;32161;48.148;-1.554;2023-04-19T00:17:11;101247.44;;;9.98;88.87
46464;BME280;32161;48.148;-1.554;2023-04-19T00:19:38;101247.22;;;9.99;89.30
46464;BME280;32161;48.148;-1.554;2023-04-19T00:22:07;101244.09;;;9.96;89.07
46464;BME280;32161;48.148;-1.554;2023-04-19T00:24:35;101239.28;;;9.91;88.54
46464;BME280;32161;48.148;-1.554;2023-04-19T00:27:03;101243.06;;;9.90;88.58
46464;BME280;32161;48.148;-1.554;2023-04-19T00:29:30;101247.47;;;9.85;88.84
46464;BME280;32161;48.148;-1.554;2023-04-19T00:31:58;101234.94;;;9.84;88.95
46464;BME280;32161;48.148;-1.554;2023-04-19T00:34:26;101241.81;;;9.86;89.10
46464;BME280;32161;48.148;-1.554;2023-04-19T00:36:54;101243.94;;;9.84;89.36
46464;BME280;32161;48.148;-1.554;2023-04-19T00:39:24;101244.13;;;9.89;89.98
46464;BME280;32161;48.148;-1.554;2023-04-19T00:41:51;101238.88;;;9.88;90.20
46464;BME280;32161;48.148;-1.554;2023-04-19T00:44:19;101234.09;;;9.90;89.94
46464;BME280;32161;48.148;-1.554;2023-04-19T00:46:47;101234.50;;;9.93;89.53
46464;BME280;32161;48.148;-1.554;2023-04-19T00:49:14;101224.63;;;10.06;89.85
46464;BME280;32161;48.148;-1.554;2023-04-19T00:51:42;101221.97;;;9.92;90.58
46464;BME280;32161;48.148;-1.554;2023-04-19T00:54:11;101229.66;;;9.95;90.15
46464;BME280;32161;48.148;-1.554;2023-04-19T00:56:41;101223.41;;;9.95;90.39
46464;BME280;32161;48.148;-1.554;2023-04-19T00:59:11;101228.22;;;9.93;89.83
46464;BME280;32161;48.148;-1.554;2023-04-19T01:01:41;101214.63;;;9.99;89.92
46464;BME280;32161;48.148;-1.554;2023-04-19T01:04:09;101219.84;;;9.94;89.64
46464;BME280;32161;48.148;-1.554;2023-04-19T01:06:37;101220.91;;;9.93;89.79
46464;BME280;32161;48.148;-1.554;2023-04-19T01:09:06;101215.25;;;9.95;89.74
46464;BME280;32161;48.148;-1.554;2023-04-19T01:11:34;101211.72;;;9.94;89.45
46464;BME280;32161;48.148;-1.554;2023-04-19T01:14:03;101217.38;;;9.93;89.81
46464;BME280;32161;48.148;-1.554;2023-04-19T01:16:30;101208.59;;;9.91;89.36
46464;BME280;32161;48.148;-1.554;2023-04-19T01:18:58;101202.75;;;9.87;89.00
46464;BME280;32161;48.148;-1.554;2023-04-19T01:21:26;101197.97;;;9.89;88.89
46464;BME280;32161;48.148;-1.554;2023-04-19T01:23:57;101203.81;;;9.86;88.86
46464;BME280;32161;48.148;-1.554;2023-04-19T01:26:24;101191.44;;;9.97;89.30
46464;BME280;32161;48.148;-1.554;2023-04-19T01:28:52;101196.50;;;9.87;89.50
46464;BME280;32161;48.148;-1.554;2023-04-19T01:31:19;101188.09;;;9.95;89.41
46464;BME280;32161;48.148;-1.554;2023-04-19T01:33:47;101183.31;;;9.97;89.83
46464;BME280;32161;48.148;-1.554;2023-04-19T01:36:15;101184.38;;;9.89;90.01
46464;BME280;32161;48.148;-1.554;2023-04-19T01:38:42;101179.38;;;9.86;89.42
46464;BME280;32161;48.148;-1.554;2023-04-19T01:41:14;101180.19;;;9.87;89.66
46464;BME280;32161;48.148;-1.554;2023-04-19T01:43:41;101178.94;;;9.89;90.28
46464;BME280;32161;48.148;-1.554;2023-04-19T01:46:09;101174.56;;;9.88;90.39
46464;BME280;32161;48.148;-1.554;2023-04-19T01:48:37;101173.50;;;9.96;90.88
46464;BME280;32161;48.148;-1.554;2023-04-19T01:51:04;101174.53;;;9.95;90.40
46464;BME280;32161;48.148;-1.554;2023-04-19T01:53:32;101176.00;;;9.91;90.34
46464;BME280;32161;48.148;-1.554;2023-04-19T01:55:59;101175.59;;;9.94;90.37
46464;BME280;32161;48.148;-1.554;2023-04-19T01:58:28;101164.06;;;9.98;90.53
46464;BME280;32161;48.148;-1.554;2023-04-19T02:00:57;101167.03;;;9.90;90.55
46464;BME280;32161;48.148;-1.554;2023-04-19T02:03:25;101169.75;;;9.90;89.94
46464;BME280;32161;48.148;-1.554;2023-04-19T02:05:52;101170.16;;;9.87;89.65
46464;BME280;32161;48.148;-1.554;2023-04-19T02:08:20;101168.50;;;9.86;89.83
46464;BME280;32161;48.148;-1.554;2023-04-19T02:10:47;101168.09;;;9.83;90.40
46464;BME280;32161;48.148;-1.554;2023-04-19T02:13:15;101159.56;;;9.79;90.35
46464;BME280;32161;48.148;-1.554;2023-04-19T02:15:44;101160.84;;;9.70;91.03
46464;BME280;32161;48.148;-1.554;2023-04-19T02:18:11;101158.28;;;9.88;90.75
46464;BME280;32161;48.148;-1.554;2023-04-19T02:20:39;101157.47;;;9.81;90.76
46464;BME280;32161;48.148;-1.554;2023-04-19T02:23:07;101153.72;;;9.75;91.08
46464;BME280;32161;48.148;-1.554;2023-04-19T02:25:34;101156.44;;;9.75;90.19
46464;BME280;32161;48.148;-1.554;2023-04-19T02:28:02;101161.25;;;9.80;90.15
46464;BME280;32161;48.148;-1.554;2023-04-19T02:30:29;101153.94;;;9.74;90.67
46464;BME280;32161;48.148;-1.554;2023-04-19T02:32:58;101154.13;;;9.79;89.89
46464;BME280;32161;48.148;-1.554;2023-04-19T02:35:26;101147.47;;;9.68;90.77
46464;BME280;32161;48.148;-1.554;2023-04-19T02:37:53;101150.00;;;9.63;89.65
46464;BME280;32161;48.148;-1.554;2023-04-19T02:40:21;101149.00;;;9.58;89.41
46464;BME280;32161;48.148;-1.554;2023-04-19T02:42:49;101141.28;;;9.54;89.52
46464;BME280;32161;48.148;-1.554;2023-04-19T02:45:16;101141.25;;;9.61;89.22
46464;BME280;32161;48.148;-1.554;2023-04-19T02:47:44;101135.63;;;9.56;89.09
46464;BME280;32161;48.148;-1.554;2023-04-19T02:50:14;101137.91;;;9.59;89.98
46464;BME280;32161;48.148;-1.554;2023-04-19T02:52:42;101137.94;;;9.52;90.12
46464;BME280;32161;48.148;-1.554;2023-04-19T02:55:10;101141.47;;;9.53;90.02
46464;BME280;32161;48.148;-1.554;2023-04-19T02:57:37;101135.03;;;9.47;90.61
46464;BME280;32161;48.148;-1.554;2023-04-19T03:00:07;101127.94;;;9.46;90.56
46464;BME280;32161;48.148;-1.554;2023-04-19T03:02:35;101130.03;;;9.51;90.88
46464;BME280;32161;48.148;-1.554;2023-04-19T03:05:03;101124.38;;;9.52;91.89
46464;BME280;32161;48.148;-1.554;2023-04-19T03:07:33;101125.44;;;9.45;91.83
46464;BME280;32161;48.148;-1.554;2023-04-19T03:10:00;101134.84;;;9.42;90.62
46464;BME280;32161;48.148;-1.554;2023-04-19T03:12:28;101129.84;;;9.39;90.42
46464;BME280;32161;48.148;-1.554;2023-04-19T03:14:56;101136.94;;;9.40;89.83
46464;BME280;32161;48.148;-1.554;2023-04-19T03:17:23;101127.16;;;9.33;90.38
46464;BME280;32161;48.148;-1.554;2023-04-19T03:19:51;101125.69;;;9.30;91.95
46464;BME280;32161;48.148;-1.554;2023-04-19T03:22:19;101133.22;;;9.28;91.70
46464;BME280;32161;48.148;-1.554;2023-04-19T03:24:48;101128.63;;;9.28;91.54
46464;BME280;32161;48.148;-1.554;2023-04-19T03:27:15;101129.66;;;9.34;92.33
46464;BME280;32161;48.148;-1.554;2023-04-19T03:29:43;101120.69;;;9.27;92.95
46464;BME280;32161;48.148;-1.554;2023-04-19T03:32:10;101129.44;;;9.29;92.14
46464;BME280;32161;48.148;-1.554;2023-04-19T03:34:38;101130.50;;;9.28;91.29
46464;BME280;32161;48.148;-1.554;2023-04-19T03:37:06;101132.16;;;9.22;91.06
46464;BME280;32161;48.148;-1.554;2023-04-19T03:39:33;101132.38;;;9.21;90.73
46464;BME280;32161;48.148;-1.554;2023-04-19T03:42:02;101133.63;;;9.18;90.64
46464;BME280;32161;48.148;-1.554;2023-04-19T03:44:31;101137.41;;;9.17;90.74
46464;BME280;32161;48.148;-1.554;2023-04-19T03:46:59;101133.03;;;9.16;90.47
46464;BME280;32161;48.148;-1.554;2023-04-19T03:49:26;101129.50;;;9.16;90.21
46464;BME280;32161;48.148;-1.554;2023-04-19T03:51:54;101133.25;;;9.15;90.04
46464;BME280;32161;48.148;-1.554;2023-04-19T03:54:21;101127.59;;;9.10;89.96
46464;BME280;32161;48.148;-1.554;2023-04-19T03:56:49;101130.72;;;9.07;89.73
46464;BME280;32161;48.148;-1.554;2023-04-19T03:59:18;101129.06;;;9.05;90.38
46464;BME280;32161;48.148;-1.554;2023-04-19T04:01:45;101123.66;;;9.05;90.21
46464;BME280;32161;48.148;-1.554;2023-04-19T04:04:13;101120.75;;;9.00;90.88
46464;BME280;32161;48.148;-1.554;2023-04-19T04:06:41;101131.38;;;9.02;90.43
46464;BME280;32161;48.148;-1.554;2023-04-19T04:09:08;101130.75;;;9.00;90.77
46464;BME280;32161;48.148;-1.554;2023-04-19T04:11:36;101128.25;;;8.98;90.21
46464;BME280;32161;48.148;-1.554;2023-04-19T04:14:03;101125.34;;;9.00;90.89
46464;BME280;32161;48.148;-1.554;2023-04-19T04:16:32;101130.34;;;8.96;91.40
46464;BME280;32161;48.148;-1.554;2023-04-19T04:19:00;101134.09;;;8.95;90.68
46464;BME280;32161;48.148;-1.554;2023-04-19T04:21:28;101120.53;;;8.95;90.76
46464;BME280;32161;48.148;-1.554;2023-04-19T04:23:55;101127.41;;;8.91;91.08
46464;BME280;32161;48.148;-1.554;2023-04-19T04:26:23;101128.28;;;8.92;91.72
46464;BME280;32161;48.148;-1.554;2023-04-19T04:28:55;101129.09;;;8.92;91.40
46464;BME280;32161;48.148;-1.554;2023-04-19T04:31:23;101133.47;;;8.93;90.52
46464;BME280;32161;48.148;-1.554;2023-04-19T04:33:52;101136.41;;;8.92;90.56
46464;BME280;32161;48.148;-1.554;2023-04-19T04:36:20;101133.47;;;8.93;90.39
46464;BME280;32161;48.148;-1.554;2023-04-19T04:38:48;101137.66;;;8.89;89.71
46464;BME280;32161;48.148;-1.554;2023-04-19T04:41:16;101138.28;;;8.85;90.25
46464;BME280;32161;48.148;-1.554;2023-04-19T04:43:46;101134.09;;;8.82;89.92
46464;BME280;32161;48.148;-1.554;2023-04-19T04:46:16;101127.84;;;8.82;89.71
46464;BME280;32161;48.148;-1.554;2023-04-19T04:48:44;101129.91;;;8.79;89.54
46464;BME280;32161;48.148;-1.554;2023-04-19T04:51:13;101138.28;;;8.78;90.05
46464;BME280;32161;48.148;-1.554;2023-04-19T04:53:41;101127.44;;;8.78;89.91
46464;BME280;32161;48.148;-1.554;2023-04-19T04:56:08;101129.91;;;8.79;91.51
46464;BME280;32161;48.148;-1.554;2023-04-19T04:58:36;101137.03;;;8.74;92.02
46464;BME280;32161;48.148;-1.554;2023-04-19T05:01:04;101126.59;;;8.71;91.19
46464;BME280;32161;48.148;-1.554;2023-04-19T05:03:32;101128.06;;;8.67;90.95
46464;BME280;32161;48.148;-1.554;2023-04-19T05:05:59;101124.94;;;8.63;91.52
46464;BME280;32161;48.148;-1.554;2023-04-19T05:08:28;101126.81;;;8.63;91.61
46464;BME280;32161;48.148;-1.554;2023-04-19T05:10:56;101127.03;;;8.61;91.44
46464;BME280;32161;48.148;-1.554;2023-04-19T05:13:24;101135.34;;;8.60;92.64
46464;BME280;32161;48.148;-1.554;2023-04-19T05:15:51;101119.09;;;8.60;92.72
46464;BME280;32161;48.148;-1.554;2023-04-19T05:18:19;101127.84;;;8.62;93.18
46464;BME280;32161;48.148;-1.554;2023-04-19T05:20:46;101128.06;;;8.53;93.25
46464;BME280;32161;48.148;-1.554;2023-04-19T05:23:14;101121.16;;;8.64;93.55
46464;BME280;32161;48.148;-1.554;2023-04-19T05:25:43;101124.72;;;8.58;94.39
46464;BME280;32161;48.148;-1.554;2023-04-19T05:28:11;101122.03;;;8.58;94.29
46464;BME280;32161;48.148;-1.554;2023-04-19T05:30:39;101124.91;;;8.56;94.63
46464;BME280;32161;48.148;-1.554;2023-04-19T05:33:06;101120.34;;;8.64;94.94
46464;BME280;32161;48.148;-1.554;2023-04-19T05:35:34;101131.59;;;8.67;95.74
46464;BME280;32161;48.148;-1.554;2023-04-19T05:38:01;101124.50;;;8.79;96.39
46464;BME280;32161;48.148;-1.554;2023-04-19T05:40:29;101136.19;;;8.87;96.46
46464;BME280;32161;48.148;-1.554;2023-04-19T05:42:58;101139.13;;;8.85;97.24
46464;BME280;32161;48.148;-1.554;2023-04-19T05:45:26;101132.00;;;8.91;97.20
46464;BME280;32161;48.148;-1.554;2023-04-19T05:47:53;101141.38;;;9.08;97.61
46464;BME280;32161;48.148;-1.554;2023-04-19T05:50:21;101139.72;;;9.00;97.55
46464;BME280;32161;48.148;-1.554;2023-04-19T05:52:49;101136.56;;;9.17;97.36
46464;BME280;32161;48.148;-1.554;2023-04-19T05:55:16;101135.31;;;9.06;97.16
46464;BME280;32161;48.148;-1.554;2023-04-19T05:57:44;101126.75;;;9.22;96.96
46464;BME280;32161;48.148;-1.554;2023-04-19T06:00:14;101136.34;;;9.25;96.66
46464;BME280;32161;48.148;-1.554;2023-04-19T06:02:42;101134.88;;;9.29;96.49
46464;BME280;32161;48.148;-1.554;2023-04-19T06:05:10;101134.88;;;9.36;96.78
46464;BME280;32161;48.148;-1.554;2023-04-19T06:07:38;101138.22;;;9.31;97.11
46464;BME280;32161;48.148;-1.554;2023-04-19T06:10:07;101133.22;;;9.21;97.99
46464;BME280;32161;48.148;-1.554;2023-04-19T06:12:35;101138.00;;;9.33;97.96
46464;BME280;32161;48.148;-1.554;2023-04-19T06:15:03;101130.28;;;9.29;98.05
46464;BME280;32161;48.148;-1.554;2023-04-19T06:17:33;101131.09;;;9.37;97.84
46464;BME280;32161;48.148;-1.554;2023-04-19T06:20:00;101128.13;;;9.58;97.61
46464;BME280;32161;48.148;-1.554;2023-04-19T06:22:31;101135.22;;;9.59;96.47
46464;BME280;32161;48.148;-1.554;2023-04-19T06:24:59;101126.00;;;9.60;96.82
46464;BME280;32161;48.148;-1.554;2023-04-19T06:27:27;101127.03;;;9.66;96.97
46464;BME280;32161;48.148;-1.554;2023-04-19T06:29:54;101132.91;;;9.63;97.02
46464;BME280;32161;48.148;-1.554;2023-04-19T06:32:22;101126.81;;;9.74;96.78
46464;BME280;32161;48.148;-1.554;2023-04-19T06:34:52;101119.63;;;9.86;95.97
46464;BME280;32161;48.148;-1.554;2023-04-19T06:37:19;101125.31;;;9.78;95.89
46464;BME280;32161;48.148;-1.554;2023-04-19T06:39:47;101124.22;;;9.92;95.83
46464;BME280;32161;48.148;-1.554;2023-04-19T06:42:15;101122.94;;;9.95;95.95
46464;BME280;32161;48.148;-1.554;2023-04-19T06:44:44;101123.84;;;9.82;96.75
46464;BME280;32161;48.148;-1.554;2023-04-19T06:47:12;101126.53;;;9.89;96.87
46464;BME280;32161;48.148;-1.554;2023-04-19T06:49:40;101126.25;;;10.03;96.57
46464;BME280;32161;48.148;-1.554;2023-04-19T06:52:09;101131.63;;;10.10;96.64
46464;BME280;32161;48.148;-1.554;2023-04-19T06:54:37;101126.38;;;10.15;96.34
46464;BME280;32161;48.148;-1.554;2023-04-19T06:57:04;101119.91;;;10.16;95.86
46464;BME280;32161;48.148;-1.554;2023-04-19T06:59:32;101122.44;;;10.11;96.62
46464;BME280;32161;48.148;-1.554;2023-04-19T07:02:00;101121.38;;;10.12;97.39
46464;BME280;32161;48.148;-1.554;2023-04-19T07:04:27;101122.34;;;10.24;97.30
46464;BME280;32161;48.148;-1.554;2023-04-19T07:06:55;101127.97;;;10.30;96.81
46464;BME280;32161;48.148;-1.554;2023-04-19T07:09:24;101128.13;;;10.41;96.55
46464;BME280;32161;48.148;-1.554;2023-04-19T07:11:52;101127.41;;;10.52;95.84
46464;BME280;32161;48.148;-1.554;2023-04-19T07:14:19;101138.97;;;10.41;96.46
46464;BME280;32161;48.148;-1.554;2023-04-19T07:16:49;101142.13;;;10.70;95.21
46464;BME280;32161;48.148;-1.554;2023-04-19T07:19:18;101128.09;;;10.73;95.06
46464;BME280;32161;48.148;-1.554;2023-04-19T07:21:47;101135.47;;;10.91;93.35
46464;BME280;32161;48.148;-1.554;2023-04-19T07:24:15;101139.00;;;10.91;94.04
46464;BME280;32161;48.148;-1.554;2023-04-19T07:26:44;101131.03;;;10.96;93.91
46464;BME280;32161;48.148;-1.554;2023-04-19T07:29:12;101127.13;;;11.11;93.53
46464;BME280;32161;48.148;-1.554;2023-04-19T07:31:39;101133.91;;;11.02;93.09
46464;BME280;32161;48.148;-1.554;2023-04-19T07:34:08;101133.84;;;11.08;92.94
46464;BME280;32161;48.148;-1.554;2023-04-19T07:36:35;101129.25;;;11.09;92.68
46464;BME280;32161;48.148;-1.554;2023-04-19T07:39:04;101126.81;;;11.00;93.00
46464;BME280;32161;48.148;-1.554;2023-04-19T07:41:32;101121.97;;;11.03;92.97
46464;BME280;32161;48.148;-1.554;2023-04-19T07:44:01;101121.22;;;11.14;93.64
46464;BME280;32161;48.148;-1.554;2023-04-19T07:46:28;101125.09;;;11.24;93.49
46464;BME280;32161;48.148;-1.554;2023-04-19T07:48:56;101120.88;;;11.29;94.17
46464;BME280;32161;48.148;-1.554;2023-04-19T07:51:24;101117.84;;;11.37;93.67
46464;BME280;32161;48.148;-1.554;2023-04-19T07:53:51;101117.69;;;11.32;94.01
46464;BME280;32161;48.148;-1.554;2023-04-19T07:56:20;101113.91;;;11.33;94.30
46464;BME280;32161;48.148;-1.554;2023-04-19T07:58:48;101110.38;;;11.51;94.48
46464;BME280;32161;48.148;-1.554;2023-04-19T08:01:17;101113.09;;;11.69;92.59
46464;BME280;32161;48.148;-1.554;2023-04-19T08:03:45;101107.25;;;11.65;92.75
46464;BME280;32161;48.148;-1.554;2023-04-19T08:06:12;101107.25;;;11.65;94.21
46464;BME280;32161;48.148;-1.554;2023-04-19T08:08:40;101104.00;;;11.75;94.89
46464;BME280;32161;48.148;-1.554;2023-04-19T08:11:08;101105.75;;;11.88;92.91
46464;BME280;32161;48.148;-1.554;2023-04-19T08:13:35;101111.53;;;11.91;93.24
46464;BME280;32161;48.148;-1.554;2023-04-19T08:16:03;101112.84;;;11.89;93.02
46464;BME280;32161;48.148;-1.554;2023-04-19T08:18:33;101110.63;;;11.97;92.20
46464;BME280;32161;48.148;-1.554;2023-04-19T08:21:01;101112.88;;;12.19;92.70
46464;BME280;32161;48.148;-1.554;2023-04-19T08:23:28;101112.47;;;12.45;90.97
46464;BME280;32161;48.148;-1.554;2023-04-19T08:25:56;101112.72;;;12.56;90.42
46464;BME280;32161;48.148;-1.554;2023-04-19T08:28:23;101111.88;;;12.55;90.34
46464;BME280;32161;48.148;-1.554;2023-04-19T08:30:53;101105.97;;;12.70;90.00
46464;BME280;32161;48.148;-1.554;2023-04-19T08:33:20;101110.16;;;12.84;90.16
46464;BME280;32161;48.148;-1.554;2023-04-19T08:35:49;101112.06;;;12.95;89.61
46464;BME280;32161;48.148;-1.554;2023-04-19T08:38:17;101103.63;;;12.97;89.35
46464;BME280;32161;48.148;-1.554;2023-04-19T08:40:50;101105.06;;;13.11;88.37
46464;BME280;32161;48.148;-1.554;2023-04-19T08:43:18;101099.09;;;13.14;88.34
46464;BME280;32161;48.148;-1.554;2023-04-19T08:45:47;101094.72;;;13.37;86.27
46464;BME280;32161;48.148;-1.554;2023-04-19T08:48:16;101096.13;;;13.39;85.74
46464;BME280;32161;48.148;-1.554;2023-04-19T08:50:44;101095.53;;;13.49;84.29
46464;BME280;32161;48.148;-1.554;2023-04-19T08:53:15;101095.38;;;13.56;85.12
46464;BME280;32161;48.148;-1.554;2023-04-19T08:55:43;101101.06;;;13.66;86.84
46464;BME280;32161;48.148;-1.554;2023-04-19T08:58:11;101101.75;;;13.73;84.93
46464;BME280;32161;48.148;-1.554;2023-04-19T09:00:39;101101.25;;;13.88;83.00
46464;BME280;32161;48.148;-1.554;2023-04-19T09:03:07;101091.81;;;13.96;84.44
46464;BME280;32161;48.148;-1.554;2023-04-19T09:05:36;101098.69;;;14.27;82.67
46464;BME280;32161;48.148;-1.554;2023-04-19T09:08:27;101098.09;;;14.25;81.03
46464;BME280;32161;48.148;-1.554;2023-04-19T09:10:56;101099.19;;;14.40;82.76
46464;BME280;32161;48.148;-1.554;2023-04-19T09:13:25;101102.59;;;14.48;81.99
46464;BME280;32161;48.148;-1.554;2023-04-19T09:15:53;101097.53;;;14.39;82.60
46464;BME280;32161;48.148;-1.554;2023-04-19T09:18:23;101095.22;;;14.48;82.11
46464;BME280;32161;48.148;-1.554;2023-04-19T09:20:51;101094.09;;;14.61;80.71
46464;BME280;32161;48.148;-1.554;2023-04-19T09:23:24;101095.25;;;14.82;81.08
46464;BME280;32161;48.148;-1.554;2023-04-19T09:25:54;101088.53;;;14.73;80.12
46464;BME280;32161;48.148;-1.554;2023-04-19T09:28:23;101089.03;;;14.86;80.64
46464;BME280;32161;48.148;-1.554;2023-04-19T09:30:51;101090.00;;;14.97;80.07
46464;BME280;32161;48.148;-1.554;2023-04-19T09:33:32;101087.53;;;14.96;79.73
46464;BME280;32161;48.148;-1.554;2023-04-19T09:36:02;101079.53;;;15.11;79.76
46464;BME280;32161;48.148;-1.554;2023-04-19T09:38:46;101083.50;;;15.20;81.18
46464;BME280;32161;48.148;-1.554;2023-04-19T09:41:15;101089.44;;;15.34;80.89
46464;BME280;32161;48.148;-1.554;2023-04-19T09:43:43;101073.00;;;15.56;79.12
46464;BME280;32161;48.148;-1.554;2023-04-19T09:46:30;101075.16;;;15.76;77.62
46464;BME280;32161;48.148;-1.554;2023-04-19T09:49:19;101071.69;;;15.80;77.48
46464;BME280;32161;48.148;-1.554;2023-04-19T09:51:51;101065.88;;;15.77;79.15
46464;BME280;32161;48.148;-1.554;2023-04-19T09:54:23;101067.03;;;15.81;78.68
46464;BME280;32161;48.148;-1.554;2023-04-19T09:56:52;101062.19;;;15.88;78.85
46464;BME280;32161;48.148;-1.554;2023-04-19T09:59:20;101069.28;;;16.11;78.12
46464;BME280;32161;48.148;-1.554;2023-04-19T10:01:54;101062.97;;;16.10;78.17
46464;BME280;32161;48.148;-1.554;2023-04-19T10:04:22;101058.84;;;16.13;78.12
46464;BME280;32161;48.148;-1.554;2023-04-19T10:06:53;101056.53;;;16.27;77.52
46464;BME280;32161;48.148;-1.554;2023-04-19T10:09:22;101058.50;;;16.36;78.81
46464;BME280;32161;48.148;-1.554;2023-04-19T10:11:52;101052.31;;;16.46;77.65
46464;BME280;32161;48.148;-1.554;2023-04-19T10:14:23;101055.16;;;16.62;76.55
46464;BME280;32161;48.148;-1.554;2023-04-19T10:16:51;101046.72;;;16.68;74.33
46464;BME280;32161;48.148;-1.554;2023-04-19T10:19:20;101044.66;;;16.86;78.12
46464;BME280;32161;48.148;-1.554;2023-04-19T10:21:50;101039.78;;;16.98;76.62
46464;BME280;32161;48.148;-1.554;2023-04-19T10:24:18;101044.50;;;17.07;74.66
46464;BME280;32161;48.148;-1.554;2023-04-19T10:27:08;101041.47;;;17.04;75.67
46464;BME280;32161;48.148;-1.554;2023-04-19T10:29:56;101039.03;;;17.13;75.18
46464;BME280;32161;48.148;-1.554;2023-04-19T10:32:27;101037.19;;;17.23;73.35
46464;BME280;32161;48.148;-1.554;2023-04-19T10:35:00;101039.91;;;17.23;76.15
46464;BME280;32161;48.148;-1.554;2023-04-19T10:37:30;101034.72;;;17.27;76.53
46464;BME280;32161;48.148;-1.554;2023-04-19T10:39:58;101038.84;;;17.29;75.20
46464;BME280;32161;48.148;-1.554;2023-04-19T10:45:36;101036.78;;;17.57;73.26
46464;BME280;32161;48.148;-1.554;2023-04-19T10:48:04;101036.19;;;17.55;75.08
46464;BME280;32161;48.148;-1.554;2023-04-19T10:50:59;101039.47;;;17.42;73.34
46464;BME280;32161;48.148;-1.554;2023-04-19T10:53:53;101033.13;;;17.41;73.45
46464;BME280;32161;48.148;-1.554;2023-04-19T10:56:57;101029.63;;;17.71;73.40
46464;BME280;32161;48.148;-1.554;2023-04-19T10:59:29;101029.09;;;17.74;74.24
46464;BME280;32161;48.148;-1.554;2023-04-19T11:02:00;101024.25;;;17.97;71.67
46464;BME280;32161;48.148;-1.554;2023-04-19T11:05:07;101029.75;;;17.92;72.98
46464;BME280;32161;48.148;-1.554;2023-04-19T11:07:41;101022.03;;;17.94;70.52
46464;BME280;32161;48.148;-1.554;2023-04-19T11:10:10;101025.34;;;17.96;71.19
46464;BME280;32161;48.148;-1.554;2023-04-19T11:12:42;101014.03;;;17.82;70.31
46464;BME280;32161;48.148;-1.554;2023-04-19T11:15:10;101008.56;;;17.92;71.11
46464;BME280;32161;48.148;-1.554;2023-04-19T11:17:39;101006.34;;;17.84;71.88
46464;BME280;32161;48.148;-1.554;2023-04-19T11:20:09;101008.28;;;17.89;71.51
46464;BME280;32161;48.148;-1.554;2023-04-19T11:22:38;101006.09;;;18.11;71.73
46464;BME280;32161;48.148;-1.554;2023-04-19T11:25:12;101006.13;;;18.26;71.75
46464;BME280;32161;48.148;-1.554;2023-04-19T11:27:41;100996.19;;;18.46;71.03
46464;BME280;32161;48.148;-1.554;2023-04-19T11:30:11;100992.28;;;18.67;69.80
46464;BME280;32161;48.148;-1.554;2023-04-19T11:32:46;100992.88;;;18.80;69.06
46464;BME280;32161;48.148;-1.554;2023-04-19T11:35:14;100995.59;;;18.69;69.44
46464;BME280;32161;48.148;-1.554;2023-04-19T11:37:45;100986.78;;;18.67;68.69
46464;BME280;32161;48.148;-1.554;2023-04-19T11:40:14;100978.53;;;18.83;66.49
46464;BME280;32161;48.148;-1.554;2023-04-19T11:42:43;100983.75;;;18.64;67.17
46464;BME280;32161;48.148;-1.554;2023-04-19T11:45:12;100979.63;;;18.66;69.66
46464;BME280;32161;48.148;-1.554;2023-04-19T11:47:51;100979.06;;;18.85;70.50
46464;BME280;32161;48.148;-1.554;2023-04-19T11:50:33;100978.75;;;18.96;68.61
46464;BME280;32161;48.148;-1.554;2023-04-19T11:53:11;100973.22;;;19.07;67.07
46464;BME280;32161;48.148;-1.554;2023-04-19T11:55:42;100977.91;;;19.01;67.23
46464;BME280;32161;48.148;-1.554;2023-04-19T11:58:27;100972.91;;;19.13;66.97
46464;BME280;32161;48.148;-1.554;2023-04-19T12:00:56;100959.78;;;18.95;67.38
46464;BME280;32161;48.148;-1.554;2023-04-19T12:03:30;100969.63;;;19.06;68.25
46464;BME280;32161;48.148;-1.554;2023-04-19T12:06:00;100968.44;;;19.27;65.81
46464;BME280;32161;48.148;-1.554;2023-04-19T12:08:33;100962.06;;;19.37;66.69
46464;BME280;32161;48.148;-1.554;2023-04-19T12:11:03;100965.19;;;19.70;66.06
46464;BME280;32161;48.148;-1.554;2023-04-19T12:13:32;100952.06;;;19.96;65.15
46464;BME280;32161;48.148;-1.554;2023-04-19T12:15:59;100948.09;;;20.07;66.77
46464;BME280;32161;48.148;-1.554;2023-04-19T12:18:27;100951.88;;;20.16;64.09
46464;BME280;32161;48.148;-1.554;2023-04-19T12:21:11;100945.44;;;20.26;62.69
46464;BME280;32161;48.148;-1.554;2023-04-19T12:23:39;100952.94;;;20.20;65.18
46464;BME280;32161;48.148;-1.554;2023-04-19T12:26:06;100949.03;;;20.27;64.66
46464;BME280;32161;48.148;-1.554;2023-04-19T12:28:34;100948.66;;;20.33;61.65
46464;BME280;32161;48.148;-1.554;2023-04-19T12:31:02;100948.31;;;20.45;61.46
46464;BME280;32161;48.148;-1.554;2023-04-19T12:33:29;100937.03;;;20.41;61.37
46464;BME280;32161;48.148;-1.554;2023-04-19T12:35:57;100930.53;;;20.56;60.79
46464;BME280;32161;48.148;-1.554;2023-04-19T12:38:26;100937.59;;;20.67;61.28
46464;BME280;32161;48.148;-1.554;2023-04-19T12:40:53;100936.97;;;20.76;61.47
46464;BME280;32161;48.148;-1.554;2023-04-19T12:43:21;100927.47;;;20.82;60.32
46464;BME280;32161;48.148;-1.554;2023-04-19T12:45:49;100927.00;;;20.75;60.46
46464;BME280;32161;48.148;-1.554;2023-04-19T12:48:16;100934.94;;;20.81;59.86
46464;BME280;32161;48.148;-1.554;2023-04-19T12:50:44;100932.06;;;20.91;60.33
46464;BME280;32161;48.148;-1.554;2023-04-19T12:53:12;100928.59;;;21.05;58.73
46464;BME280;32161;48.148;-1.554;2023-04-19T12:55:41;100932.56;;;21.17;56.67
46464;BME280;32161;48.148;-1.554;2023-04-19T12:58:12;100932.13;;;21.10;58.31
46464;BME280;32161;48.148;-1.554;2023-04-19T13:00:40;100934.03;;;21.10;59.38